Pagina principale
METAR-TAF:

METAR-TAF

Aeroporti :

Maragheh, Iran

latitudine: 37-20-55N, longitudine: 046-07-35E, altezza: 1340 m

Osservazione

Il bollettino è stato emesso 48 minuti fa, alle 12:00 UTC
Vento 6 kt da ovest/sud-ovest
Temperature 33°C
Umidità 20%
Pressione 1013 hPa
Visibilità 10 km o più
Poco nuvoloso ad un'altezza di 3500 ft, Cumulo congesto.

METAR: OITM 161200Z 25006KT 9999 FEW035TCU 33/07 Q1013

Ora: 17:18 (12:48 UTC)


TAF: mancante

Osservazioni e previsioni meteorologiche di più di 4000 aeroporti (messaggi METAR e TAF).

Le stazioni disponibili sono rappresentate dai dischi gialli e rossi sulla carta.

Puntare il mouse per vedere il nome della stazione.

Clicca sopra per visualizzare le osservazioni e previsioni meteorologiche.

Per cambiare la mappa : fare clic sui pulsanti verdi con una croce nera per ingrandire, il pulsante verde con un trattino per diminuire, o sulla freccia verde per le mappe adiacenti.


METAR-TAF: